createdAt,value
2023-11-30T00:01:14.726Z,29.27
2023-11-30T00:03:44.457Z,30.90
2023-11-30T00:06:14.815Z,30.50
2023-11-30T00:08:43.376Z,30.60
2023-11-30T00:11:14.102Z,30.73
2023-11-30T00:13:42.839Z,30.83
2023-11-30T00:16:12.027Z,31.40
2023-11-30T00:18:40.776Z,31.50
2023-11-30T00:21:09.644Z,31.47
2023-11-30T00:23:39.662Z,31.37
2023-11-30T00:26:08.632Z,31.17
2023-11-30T00:28:37.222Z,33.00
2023-11-30T00:31:06.606Z,32.20
2023-11-30T00:33:35.272Z,33.17
2023-11-30T00:36:04.025Z,32.17
2023-11-30T00:38:32.696Z,31.97
2023-11-30T00:41:02.761Z,31.33
2023-11-30T00:43:31.319Z,31.17
2023-11-30T00:46:06.840Z,33.07
2023-11-30T00:48:38.494Z,31.50
2023-11-30T00:51:10.123Z,34.17
2023-11-30T00:53:38.802Z,32.07
2023-11-30T00:56:12.192Z,33.63
2023-11-30T00:58:40.844Z,32.77
2023-11-30T01:01:09.730Z,34.03
2023-11-30T01:03:38.523Z,33.90
2023-11-30T01:06:07.836Z,33.53
2023-11-30T01:08:36.451Z,33.57
2023-11-30T01:11:05.297Z,32.77
2023-11-30T01:13:35.255Z,34.27
2023-11-30T01:16:03.993Z,34.10
2023-11-30T01:18:32.694Z,33.17
2023-11-30T01:21:01.438Z,32.93
2023-11-30T01:23:30.307Z,33.80
2023-11-30T01:25:58.834Z,34.10
2023-11-30T01:28:27.539Z,33.50
2023-11-30T01:30:57.520Z,33.80
2023-11-30T01:33:26.219Z,33.13
2023-11-30T01:35:55.540Z,34.57
2023-11-30T01:38:24.167Z,34.40
2023-11-30T01:40:52.712Z,33.90
2023-11-30T01:43:23.551Z,34.00
2023-11-30T01:46:02.568Z,33.57
2023-11-30T01:48:34.626Z,34.57
2023-11-30T01:51:06.037Z,33.50
2023-11-30T01:53:35.312Z,34.53
2023-11-30T01:56:04.329Z,35.73
2023-11-30T01:58:33.342Z,33.60
2023-11-30T02:01:02.381Z,34.87
2023-11-30T02:03:31.817Z,33.67
2023-11-30T02:06:02.524Z,33.97
2023-11-30T02:08:31.133Z,35.33
2023-11-30T02:10:59.820Z,35.00
2023-11-30T02:13:28.544Z,33.57
2023-11-30T02:15:57.169Z,35.13
2023-11-30T02:18:25.855Z,34.53
2023-11-30T02:20:54.450Z,33.53
2023-11-30T02:23:24.479Z,34.83
2023-11-30T02:25:53.169Z,32.50
2023-11-30T02:28:21.916Z,33.17
2023-11-30T02:30:51.489Z,32.40
2023-11-30T02:33:20.137Z,33.90
2023-11-30T02:35:48.871Z,34.33
2023-11-30T02:38:17.539Z,33.60
2023-11-30T02:40:47.649Z,35.37
2023-11-30T02:43:16.192Z,33.23
2023-11-30T02:45:44.751Z,32.47
2023-11-30T02:48:13.568Z,34.57
2023-11-30T02:50:42.155Z,34.67
2023-11-30T02:53:10.751Z,34.97
2023-11-30T02:55:39.322Z,34.27
2023-11-30T02:58:09.361Z,33.73
2023-11-30T03:00:38.026Z,32.63
2023-11-30T03:03:06.938Z,35.77
2023-11-30T03:05:35.577Z,34.20
2023-11-30T03:08:04.150Z,35.73
2023-11-30T03:10:32.683Z,35.00
2023-11-30T03:13:01.335Z,35.27
2023-11-30T03:15:32.948Z,35.60
2023-11-30T03:18:01.772Z,34.93
2023-11-30T03:20:30.638Z,34.47
2023-11-30T03:22:59.311Z,33.10
2023-11-30T03:25:27.949Z,35.77
2023-11-30T03:27:56.544Z,33.97
2023-11-30T03:30:24.141Z,33.90
2023-11-30T03:32:54.297Z,35.10
2023-11-30T03:35:23.225Z,33.40
2023-11-30T03:37:52.333Z,34.73
2023-11-30T03:40:21.012Z,33.30
2023-11-30T03:42:49.699Z,35.10
2023-11-30T03:45:18.432Z,35.17
2023-11-30T03:47:47.101Z,34.23
2023-11-30T03:50:17.259Z,34.57
2023-11-30T03:52:46.148Z,33.03
2023-11-30T03:55:14.744Z,34.30
2023-11-30T03:57:43.272Z,33.97
2023-11-30T04:00:14.315Z,37.20
2023-11-30T04:02:43.803Z,35.53
2023-11-30T04:05:14.692Z,34.00
2023-11-30T04:07:44.865Z,34.43
2023-11-30T04:10:14.332Z,35.77
2023-11-30T04:12:43.455Z,34.70
2023-11-30T04:15:12.484Z,34.57
2023-11-30T04:17:41.207Z,35.07
2023-11-30T04:20:11.253Z,34.57
2023-11-30T04:22:39.943Z,33.27
2023-11-30T04:25:10.820Z,32.90
2023-11-30T04:27:39.860Z,34.00
2023-11-30T04:30:08.813Z,33.03
2023-11-30T04:32:37.445Z,34.77
2023-11-30T04:35:06.865Z,32.77
2023-11-30T04:37:35.498Z,33.87
2023-11-30T04:40:04.425Z,33.30
2023-11-30T04:42:34.738Z,32.83
2023-11-30T04:45:04.154Z,33.00
2023-11-30T04:47:33.021Z,33.57
2023-11-30T04:50:01.655Z,33.47
2023-11-30T04:52:30.442Z,34.47
2023-11-30T04:54:59.068Z,34.70
2023-11-30T04:57:28.001Z,33.93
2023-11-30T04:59:57.998Z,32.40
2023-11-30T05:02:26.682Z,32.23
2023-11-30T05:04:55.468Z,32.37
2023-11-30T05:07:24.200Z,32.20
2023-11-30T05:09:52.788Z,31.40
2023-11-30T05:12:21.421Z,31.60
2023-11-30T05:14:50.046Z,31.77
2023-11-30T05:17:20.073Z,33.40
2023-11-30T05:19:48.868Z,32.37
2023-11-30T05:22:17.427Z,31.63
2023-11-30T05:24:46.064Z,30.57
2023-11-30T05:27:14.930Z,31.93
2023-11-30T05:29:43.827Z,33.53
2023-11-30T05:32:12.543Z,31.40
2023-11-30T05:34:42.506Z,33.10
2023-11-30T05:37:11.094Z,33.07
2023-11-30T05:39:39.709Z,33.07
2023-11-30T05:42:11.370Z,33.57
2023-11-30T05:44:39.971Z,32.40
2023-11-30T05:47:08.849Z,32.20
2023-11-30T05:49:37.495Z,32.70
2023-11-30T05:52:07.774Z,33.23
2023-11-30T05:54:36.393Z,31.83
2023-11-30T05:57:05.252Z,31.13
2023-11-30T05:59:34.621Z,33.00
2023-11-30T06:02:03.350Z,32.83
2023-11-30T06:04:32.656Z,30.00
2023-11-30T06:07:01.750Z,32.07
2023-11-30T06:09:31.806Z,36.22
2023-11-30T06:12:00.499Z,33.23
2023-11-30T06:14:29.315Z,32.43
2023-11-30T06:16:57.921Z,33.30
2023-11-30T06:19:26.517Z,31.53
2023-11-30T06:21:55.089Z,32.33
2023-11-30T06:24:23.823Z,32.93
2023-11-30T06:26:54.030Z,34.07
2023-11-30T06:29:22.849Z,32.27
2023-11-30T06:31:51.919Z,34.80
2023-11-30T06:34:20.728Z,35.07
2023-11-30T06:36:49.277Z,33.53
2023-11-30T06:39:17.993Z,33.70
2023-11-30T06:41:52.340Z,39.83
2023-11-30T06:44:23.685Z,40.37
2023-11-30T06:46:52.296Z,38.80
2023-11-30T06:49:20.941Z,34.17
2023-11-30T06:51:49.541Z,42.40
2023-11-30T06:54:18.446Z,37.63
2023-11-30T06:56:47.117Z,34.73
2023-11-30T06:59:15.695Z,33.20
2023-11-30T07:01:45.774Z,36.17
2023-11-30T07:04:14.895Z,36.50
2023-11-30T07:06:43.522Z,33.70
2023-11-30T07:09:13.826Z,35.83
2023-11-30T07:11:44.090Z,35.63
2023-11-30T07:14:13.073Z,32.93
2023-11-30T07:16:42.016Z,33.73
2023-11-30T07:19:12.284Z,33.57
2023-11-30T07:21:40.933Z,32.00
2023-11-30T07:24:13.269Z,32.97
2023-11-30T07:26:42.342Z,36.53
2023-11-30T07:29:11.467Z,31.13
2023-11-30T07:31:40.037Z,33.97
2023-11-30T07:34:08.697Z,30.83
2023-11-30T07:36:39.060Z,31.43
2023-11-30T07:39:07.986Z,30.87
2023-11-30T07:41:36.723Z,31.20
2023-11-30T07:44:06.415Z,30.17
2023-11-30T07:46:35.769Z,31.50
2023-11-30T07:49:05.637Z,30.43
2023-11-30T07:51:34.288Z,31.33
2023-11-30T07:54:04.629Z,31.17
2023-11-30T07:56:33.295Z,28.57
2023-11-30T07:59:01.911Z,31.37
2023-11-30T08:01:30.660Z,30.17
2023-11-30T08:03:59.397Z,29.63
2023-11-30T08:06:28.210Z,30.93
2023-11-30T08:08:56.800Z,29.07
2023-11-30T08:11:26.860Z,30.07
2023-11-30T08:13:55.653Z,30.40
2023-11-30T08:16:25.015Z,30.80
2023-11-30T08:18:54.027Z,30.30
2023-11-30T08:21:23.272Z,29.50
2023-11-30T08:23:52.006Z,30.17
2023-11-30T08:26:29.691Z,29.73
2023-11-30T08:28:59.696Z,30.47
2023-11-30T08:31:28.579Z,30.03
2023-11-30T08:33:57.989Z,30.80
2023-11-30T08:36:26.784Z,32.13
2023-11-30T08:38:55.444Z,38.38
2023-11-30T08:41:24.093Z,36.00
2023-11-30T08:43:53.076Z,33.43
2023-11-30T08:46:23.266Z,35.57
2023-11-30T08:48:52.091Z,33.67
2023-11-30T08:51:20.820Z,32.63
2023-11-30T08:53:49.445Z,34.03
2023-11-30T08:56:18.288Z,34.07
2023-11-30T08:58:46.987Z,33.00
2023-11-30T09:01:15.785Z,36.30
2023-11-30T09:03:46.293Z,37.50
2023-11-30T09:06:15.159Z,33.00
2023-11-30T09:08:43.840Z,34.00
2023-11-30T09:11:12.570Z,31.63
2023-11-30T09:13:41.198Z,32.13
2023-11-30T09:16:11.552Z,33.17
2023-11-30T09:18:40.263Z,33.23
2023-11-30T09:21:10.991Z,32.77
2023-11-30T09:23:39.555Z,32.37
2023-11-30T09:26:09.263Z,32.50
2023-11-30T09:28:38.646Z,36.97
2023-11-30T09:31:09.956Z,33.93
2023-11-30T09:33:38.737Z,34.85
2023-11-30T09:36:07.999Z,33.50
2023-11-30T09:38:38.140Z,31.87
2023-11-30T09:41:08.307Z,33.30
2023-11-30T09:43:37.282Z,32.57
2023-11-30T09:46:08.197Z,34.47
2023-11-30T09:48:37.010Z,33.47
2023-11-30T09:51:06.228Z,32.03
2023-11-30T09:53:37.530Z,31.47
2023-11-30T09:56:06.875Z,33.73
2023-11-30T09:58:35.933Z,31.87
2023-11-30T10:01:04.630Z,31.73
2023-11-30T10:03:34.929Z,31.30
2023-11-30T10:06:03.663Z,30.03
2023-11-30T10:08:32.318Z,31.17
2023-11-30T10:11:03.126Z,29.40
2023-11-30T10:13:32.477Z,28.80
2023-11-30T10:16:01.185Z,28.10
2023-11-30T10:18:31.760Z,26.73
2023-11-30T10:21:00.600Z,27.70
2023-11-30T10:23:29.252Z,30.55
2023-11-30T10:25:58.846Z,27.97
2023-11-30T10:28:29.139Z,27.97
2023-11-30T10:31:02.841Z,27.93
2023-11-30T10:33:36.754Z,27.67
2023-11-30T10:36:07.097Z,26.80
2023-11-30T10:38:36.471Z,25.60
2023-11-30T10:41:10.663Z,25.80
2023-11-30T10:43:50.737Z,24.67
2023-11-30T10:46:20.788Z,22.97
2023-11-30T10:48:49.571Z,21.47
2023-11-30T10:51:18.737Z,19.40
2023-11-30T10:54:00.457Z,19.67
2023-11-30T10:56:31.962Z,18.07
2023-11-30T10:59:02.697Z,19.40
2023-11-30T11:01:50.870Z,17.27
2023-11-30T11:04:26.064Z,17.07
2023-11-30T11:07:03.249Z,17.80
2023-11-30T11:09:42.878Z,17.17
2023-11-30T11:12:21.400Z,17.67
2023-11-30T11:14:52.008Z,17.90
2023-11-30T11:17:23.392Z,16.03
2023-11-30T11:19:55.059Z,18.47
2023-11-30T11:22:25.277Z,18.30
2023-11-30T11:24:59.274Z,19.33
2023-11-30T11:27:32.040Z,19.70
2023-11-30T11:30:06.643Z,20.30
2023-11-30T11:32:37.161Z,20.07
2023-11-30T11:35:06.733Z,21.97
2023-11-30T11:37:35.625Z,20.43
2023-11-30T11:40:04.921Z,19.97
2023-11-30T11:42:34.257Z,19.43
2023-11-30T11:45:05.852Z,18.87
2023-11-30T11:47:34.601Z,15.37
2023-11-30T11:50:04.581Z,16.30
2023-11-30T11:52:33.313Z,15.17
2023-11-30T11:55:05.305Z,16.03
2023-11-30T11:57:36.323Z,16.58
2023-11-30T12:00:08.754Z,15.87
2023-11-30T12:02:37.499Z,15.50
2023-11-30T12:05:11.265Z,13.53
2023-11-30T12:07:50.864Z,15.33
2023-11-30T12:10:31.292Z,15.77
2023-11-30T12:13:01.620Z,16.37
2023-11-30T12:15:32.397Z,15.70
2023-11-30T12:18:02.255Z,15.87
2023-11-30T12:20:32.440Z,15.47
2023-11-30T12:23:02.250Z,13.93
2023-11-30T12:25:31.016Z,15.47
2023-11-30T12:28:00.097Z,15.37
2023-11-30T12:30:29.268Z,15.77
2023-11-30T12:32:59.802Z,15.53
2023-11-30T12:35:31.721Z,16.13
2023-11-30T12:38:00.497Z,14.93
2023-11-30T12:40:29.201Z,15.80
2023-11-30T12:43:00.026Z,15.90
2023-11-30T12:45:28.781Z,15.97
2023-11-30T12:47:59.010Z,16.87
2023-11-30T12:50:27.869Z,16.07
2023-11-30T12:52:57.011Z,18.07
2023-11-30T12:55:26.004Z,17.93
2023-11-30T12:57:54.782Z,18.23
2023-11-30T13:00:23.711Z,17.03
2023-11-30T13:02:53.103Z,17.60
2023-11-30T13:05:24.290Z,17.30
2023-11-30T13:07:54.784Z,16.57
2023-11-30T13:10:25.146Z,18.57
2023-11-30T13:12:53.966Z,17.97
2023-11-30T13:15:22.690Z,17.10
2023-11-30T13:17:52.164Z,18.80
2023-11-30T13:20:22.505Z,18.70
2023-11-30T13:22:51.207Z,19.33
2023-11-30T13:25:19.958Z,19.27
2023-11-30T13:27:48.958Z,18.20
2023-11-30T13:30:19.378Z,19.37
2023-11-30T13:32:48.676Z,17.83
2023-11-30T13:35:17.641Z,18.23
2023-11-30T13:37:49.583Z,17.13
2023-11-30T13:40:21.032Z,19.30
2023-11-30T13:42:50.232Z,18.13
2023-11-30T13:45:25.092Z,16.97
2023-11-30T13:47:53.966Z,19.57
2023-11-30T13:50:36.646Z,18.93
2023-11-30T13:53:07.723Z,17.20
2023-11-30T13:55:36.439Z,17.93
2023-11-30T13:58:05.601Z,16.67
2023-11-30T14:00:35.680Z,17.10
2023-11-30T14:03:05.511Z,18.63
2023-11-30T14:05:34.239Z,18.70
2023-11-30T14:08:03.700Z,17.90
2023-11-30T14:10:33.738Z,16.97
2023-11-30T14:13:03.966Z,17.27
2023-11-30T14:15:33.083Z,16.90
2023-11-30T14:18:01.812Z,17.83
2023-11-30T14:20:30.851Z,16.83
2023-11-30T14:22:59.981Z,16.30
2023-11-30T14:25:29.761Z,15.97
2023-11-30T14:28:04.938Z,16.97
2023-11-30T14:30:38.239Z,16.10
2023-11-30T14:33:09.735Z,15.97
2023-11-30T14:35:40.763Z,17.27
2023-11-30T14:38:09.625Z,17.00
2023-11-30T14:40:38.911Z,18.67
2023-11-30T14:43:09.170Z,19.97
2023-11-30T14:45:37.909Z,19.97
2023-11-30T14:48:07.734Z,18.73
2023-11-30T14:50:36.638Z,18.80
2023-11-30T14:53:06.095Z,18.77
2023-11-30T14:55:35.260Z,18.67
2023-11-30T14:58:05.142Z,19.03
2023-11-30T15:00:36.123Z,20.60
2023-11-30T15:03:10.764Z,20.57
2023-11-30T15:05:41.288Z,19.87
2023-11-30T15:08:10.160Z,20.97
2023-11-30T15:10:38.907Z,21.17
2023-11-30T15:13:07.609Z,21.57
2023-11-30T15:15:37.739Z,20.53
2023-11-30T15:18:06.649Z,20.47
2023-11-30T15:20:35.523Z,21.60
2023-11-30T15:23:04.227Z,21.03
2023-11-30T15:25:32.831Z,21.60
2023-11-30T15:28:01.878Z,21.57
2023-11-30T15:30:30.478Z,22.37
2023-11-30T15:33:00.495Z,23.43
2023-11-30T15:35:29.997Z,22.87
2023-11-30T15:38:00.421Z,23.07
2023-11-30T15:40:29.157Z,24.00
2023-11-30T15:42:57.879Z,23.43
2023-11-30T15:45:28.365Z,21.90
2023-11-30T15:47:57.150Z,21.60
2023-11-30T15:50:27.276Z,21.63
2023-11-30T15:52:56.188Z,21.73
2023-11-30T15:55:24.767Z,21.60
2023-11-30T15:57:53.538Z,22.27
2023-11-30T16:00:22.710Z,21.93
2023-11-30T16:02:52.402Z,21.90
2023-11-30T16:05:22.998Z,23.33
2023-11-30T16:07:53.094Z,23.50
2023-11-30T16:10:21.772Z,24.17
2023-11-30T16:12:50.810Z,23.53
2023-11-30T16:15:19.902Z,24.30
2023-11-30T16:17:53.629Z,26.70
2023-11-30T16:20:22.395Z,27.03
2023-11-30T16:22:52.647Z,26.57
2023-11-30T16:25:21.541Z,26.33
2023-11-30T16:27:50.289Z,24.43
2023-11-30T16:30:19.982Z,27.07
2023-11-30T16:32:48.634Z,26.43
2023-11-30T16:35:17.604Z,27.30
2023-11-30T16:37:49.559Z,26.30
2023-11-30T16:40:19.797Z,26.60
2023-11-30T16:42:49.046Z,28.00
2023-11-30T16:45:17.929Z,26.40
2023-11-30T16:47:46.841Z,27.87
2023-11-30T16:50:16.073Z,29.03
2023-11-30T16:52:49.086Z,28.00
2023-11-30T16:55:19.334Z,27.67
2023-11-30T16:57:48.051Z,28.77
2023-11-30T17:00:18.536Z,29.03
2023-11-30T17:02:48.220Z,28.77
2023-11-30T17:05:17.257Z,28.40
2023-11-30T17:07:47.148Z,31.00
2023-11-30T17:10:16.122Z,30.87
2023-11-30T17:12:46.913Z,32.37
2023-11-30T17:15:15.985Z,31.97
2023-11-30T17:17:47.296Z,32.00
2023-11-30T17:20:16.071Z,32.20
2023-11-30T17:22:47.190Z,31.53
2023-11-30T17:25:15.847Z,31.13
2023-11-30T17:27:45.962Z,30.20
2023-11-30T17:30:16.452Z,30.57
2023-11-30T17:32:45.336Z,29.47
2023-11-30T17:35:14.457Z,29.37
2023-11-30T17:37:43.140Z,32.77
2023-11-30T17:40:13.028Z,33.00
2023-11-30T17:42:41.774Z,32.53
2023-11-30T17:45:12.232Z,31.27
2023-11-30T17:47:41.078Z,31.63
2023-11-30T17:50:10.851Z,30.90
2023-11-30T17:52:39.589Z,30.50
2023-11-30T17:55:08.450Z,30.50
2023-11-30T17:57:37.153Z,31.17
2023-11-30T18:00:07.132Z,29.60
2023-11-30T18:02:37.224Z,29.80
2023-11-30T18:05:06.347Z,30.53
2023-11-30T18:07:35.055Z,31.37
2023-11-30T18:10:04.367Z,32.00
2023-11-30T18:12:33.217Z,32.93
2023-11-30T18:15:04.087Z,31.57
2023-11-30T18:17:33.537Z,35.30
2023-11-30T18:20:03.658Z,35.47
2023-11-30T18:22:34.335Z,34.20
2023-11-30T18:25:03.243Z,34.83
2023-11-30T18:27:32.260Z,34.53
2023-11-30T18:30:01.011Z,35.73
2023-11-30T18:32:29.690Z,34.80
2023-11-30T18:34:58.619Z,35.07
2023-11-30T18:37:29.570Z,35.77
2023-11-30T18:39:58.768Z,35.27
2023-11-30T18:42:27.987Z,35.57
2023-11-30T18:44:57.306Z,36.03
2023-11-30T18:47:26.109Z,36.57
2023-11-30T18:49:55.046Z,36.70
2023-11-30T18:52:23.745Z,36.57
2023-11-30T18:54:55.838Z,37.63
2023-11-30T18:57:24.841Z,36.30
2023-11-30T18:59:53.816Z,37.37
2023-11-30T19:02:22.902Z,36.60
2023-11-30T19:04:51.737Z,39.17
2023-11-30T19:07:20.514Z,38.10
2023-11-30T19:09:52.113Z,39.03
2023-11-30T19:12:24.915Z,37.93
2023-11-30T19:14:53.728Z,37.17
2023-11-30T19:17:22.414Z,37.50
2023-11-30T19:19:51.115Z,40.07
2023-11-30T19:22:20.072Z,39.93
2023-11-30T19:24:49.054Z,37.13
2023-11-30T19:27:18.014Z,36.57
2023-11-30T19:29:48.258Z,39.13
2023-11-30T19:32:16.975Z,38.33
2023-11-30T19:34:45.614Z,39.27
2023-11-30T19:37:14.546Z,38.23
2023-11-30T19:39:47.793Z,36.80
2023-11-30T19:42:16.596Z,45.03
2023-11-30T19:44:45.233Z,46.20
2023-11-30T19:47:15.462Z,46.93
2023-11-30T19:49:50.998Z,42.43
2023-11-30T19:57:19.480Z,44.63
2023-11-30T20:00:42.100Z,47.63
2023-11-30T20:03:14.153Z,42.93
2023-11-30T20:05:42.782Z,45.10
2023-11-30T20:08:11.554Z,46.90
2023-11-30T20:10:40.399Z,48.83
2023-11-30T20:13:09.117Z,44.53
2023-11-30T20:15:37.985Z,42.93
2023-11-30T20:18:07.359Z,42.00
2023-11-30T20:20:39.639Z,43.27
2023-11-30T20:23:08.479Z,46.50
2023-11-30T20:25:37.422Z,43.40
2023-11-30T20:28:06.414Z,45.13
2023-11-30T20:30:35.542Z,44.63
2023-11-30T20:33:04.297Z,44.67
2023-11-30T20:35:33.681Z,46.07
2023-11-30T20:38:03.818Z,49.07
2023-11-30T20:40:32.557Z,48.30
2023-11-30T20:49:27.440Z,46.90
2023-11-30T20:51:56.067Z,48.10
2023-11-30T20:54:26.240Z,47.93
2023-11-30T20:56:55.979Z,47.83
2023-11-30T20:59:25.765Z,46.27
2023-11-30T21:13:04.632Z,48.23
2023-11-30T21:15:33.446Z,46.97
2023-11-30T21:18:02.362Z,49.43
2023-11-30T21:20:34.740Z,50.43
2023-11-30T21:23:03.743Z,51.03
2023-11-30T21:25:32.527Z,53.73
2023-11-30T21:28:02.767Z,50.57
2023-11-30T21:30:31.834Z,52.33
2023-11-30T21:33:00.773Z,52.67
2023-11-30T21:35:30.976Z,52.63
2023-11-30T21:37:59.737Z,55.20
2023-11-30T21:40:32.967Z,54.77
2023-11-30T21:43:03.392Z,51.13
2023-11-30T21:45:32.172Z,52.73
2023-11-30T21:48:01.264Z,50.43
2023-11-30T21:50:30.232Z,51.80
2023-11-30T21:52:59.189Z,52.37
2023-11-30T21:55:28.366Z,52.20
2023-11-30T21:57:57.206Z,52.17
2023-11-30T22:00:27.593Z,53.97
2023-11-30T22:02:56.678Z,56.73
2023-11-30T22:05:30.940Z,56.87
2023-11-30T22:08:05.281Z,56.07
2023-11-30T22:10:34.225Z,54.37
2023-11-30T22:13:03.182Z,54.77
2023-11-30T22:15:33.469Z,54.43
2023-11-30T22:18:04.928Z,53.37
2023-11-30T22:20:33.782Z,54.93
2023-11-30T22:23:02.513Z,55.07
2023-11-30T22:25:31.261Z,55.43
2023-11-30T22:28:00.135Z,54.93
2023-11-30T22:30:29.052Z,56.43
2023-11-30T22:32:59.417Z,57.93
2023-11-30T22:35:28.954Z,58.83
2023-11-30T22:37:57.876Z,58.20
2023-11-30T22:40:27.463Z,59.80
2023-11-30T22:42:56.293Z,57.40
2023-11-30T22:45:25.305Z,57.03
2023-11-30T22:47:54.695Z,56.13
2023-11-30T22:50:25.717Z,56.83
2023-11-30T22:52:54.814Z,67.00
2023-11-30T22:55:24.356Z,59.20
2023-11-30T22:57:54.482Z,58.97
2023-11-30T23:00:25.635Z,56.97
2023-11-30T23:02:55.183Z,55.30
2023-11-30T23:05:26.048Z,56.37
2023-11-30T23:07:54.985Z,58.57
2023-11-30T23:10:23.758Z,53.23
2023-11-30T23:12:53.880Z,55.57
2023-11-30T23:15:22.864Z,53.77
2023-11-30T23:17:51.804Z,55.83
2023-11-30T23:20:21.293Z,55.83
2023-11-30T23:22:51.724Z,57.13
2023-11-30T23:25:20.869Z,55.47
2023-11-30T23:27:49.994Z,56.63
2023-11-30T23:30:19.123Z,55.20
2023-11-30T23:32:50.674Z,54.23
2023-11-30T23:35:21.320Z,55.33
2023-11-30T23:37:51.724Z,55.23
2023-11-30T23:40:21.116Z,56.43
2023-11-30T23:42:49.870Z,56.23
2023-11-30T23:45:18.830Z,68.77
2023-11-30T23:47:47.810Z,64.00
2023-11-30T23:50:17.021Z,58.93
2023-11-30T23:52:46.950Z,58.77
2023-11-30T23:55:17.502Z,57.57
2023-11-30T23:57:47.451Z,57.37
